Time;durP1;ratioP1;P1;durP2;ratioP2;P2;SDS_P1;SDS_P2;PMS_P1;PMS_P2;Temp;Humidity;BMP_temperature;BMP_pressure;BME280_temperature;BME280_humidity;BME280_pressure;Samples;Min_cycle;Max_cycle;Signal;HPM_P1;HPM_P2
2023/04/07 00:00:52;;;;;;;2.60;2.40;;;;;;;18.47;43.91;99423.77;104394;1256;69797;-62
2023/04/07 00:03:23;;;;;;;2.50;2.30;;;;;;;18.41;43.76;99426.73;104298;1251;71991;-62
2023/04/07 00:05:52;;;;;;;2.90;2.70;;;;;;;18.38;43.89;99425.77;104353;1257;60501;-62
2023/04/07 00:08:20;;;;;;;3.20;2.60;;;;;;;18.36;44.15;99427.90;104494;1255;60620;-64
2023/04/07 00:10:49;;;;;;;2.60;2.40;;;;;;;18.31;44.06;99425.94;104578;1251;74208;-62
2023/04/07 00:13:19;;;;;;;2.30;2.20;;;;;;;18.22;43.57;99433.00;104403;1260;69962;-61
2023/04/07 00:15:48;;;;;;;2.20;2.10;;;;;;;18.16;44.19;99428.77;104381;1251;72247;-62
2023/04/07 00:18:26;;;;;;;2.50;2.30;;;;;;;18.12;43.97;99429.35;104404;1256;60792;-59
2023/04/07 00:20:55;;;;;;;2.50;2.30;;;;;;;18.07;44.01;99434.36;104266;1260;60549;-62
2023/04/07 00:23:23;;;;;;;2.00;1.90;;;;;;;18.07;43.75;99431.39;104438;1269;72842;-61
2023/04/07 00:25:52;;;;;;;1.90;1.80;;;;;;;18.11;43.69;99434.77;104566;1251;69599;-62
2023/04/07 00:28:20;;;;;;;1.40;1.30;;;;;;;18.13;43.48;99437.98;104412;1251;72220;-62
2023/04/07 00:30:52;;;;;;;1.90;1.80;;;;;;;18.14;43.31;99435.56;104447;1251;60727;-62
2023/04/07 00:33:22;;;;;;;1.40;1.40;;;;;;;18.01;42.45;99438.54;104293;1270;60643;-62
2023/04/07 00:35:53;;;;;;;2.50;1.50;;;;;;;17.95;43.61;99442.55;104409;1267;73944;-62
2023/04/07 00:38:22;;;;;;;1.40;1.30;;;;;;;17.91;43.52;99443.22;104298;1251;69288;-62
2023/04/07 00:40:57;;;;;;;1.30;1.30;;;;;;;17.91;42.97;99445.35;104364;1257;72540;-63
2023/04/07 00:43:26;;;;;;;1.20;1.20;;;;;;;17.96;43.24;99440.02;104364;1256;60488;-62
2023/04/07 00:45:54;;;;;;;1.00;1.00;;;;;;;17.96;42.54;99444.78;104393;1256;60457;-63
2023/04/07 00:48:23;;;;;;;1.20;1.10;;;;;;;17.98;42.62;99447.98;104474;1251;72684;-64
2023/04/07 00:50:51;;;;;;;1.00;1.00;;;;;;;17.99;42.66;99452.52;104353;1259;71130;-65
2023/04/07 00:53:19;;;;;;;0.80;0.80;;;;;;;17.96;42.26;99451.17;104373;1260;71473;-64
2023/04/07 00:55:50;;;;;;;0.90;0.90;;;;;;;18.05;42.34;99451.94;104334;1256;60560;-65
2023/04/07 00:58:20;;;;;;;1.00;1.00;;;;;;;18.07;42.46;99457.94;104382;1251;60629;-65
2023/04/07 01:03:09;;;;;;;1.10;1.10;;;;;;;16.67;46.01;99459.67;101348;1305;601314;-63
2023/04/07 01:05:52;;;;;;;1.20;1.20;;;;;;;17.89;42.05;99462.50;104302;1269;60167;-63
2023/04/07 01:08:37;;;;;;;0.80;0.80;;;;;;;17.92;41.75;99462.47;104296;1264;60841;-64
2023/04/07 01:11:16;;;;;;;2.60;0.80;;;;;;;17.78;42.26;99464.33;104359;1254;71951;-64
2023/04/07 01:13:51;;;;;;;0.80;0.80;;;;;;;17.79;41.79;99462.74;104351;1260;69366;-64
2023/04/07 01:16:34;;;;;;;0.70;0.70;;;;;;;17.80;41.86;99469.70;104158;1256;317422;-64
2023/04/07 01:19:25;;;;;;;0.90;0.90;;;;;;;17.82;41.79;99467.61;104376;1253;60329;-64
2023/04/07 01:21:57;;;;;;;0.70;0.70;;;;;;;17.90;41.87;99477.30;104213;1260;60299;-64
2023/04/07 01:24:38;;;;;;;0.70;0.70;;;;;;;17.90;41.30;99475.39;104399;1257;71402;-65
2023/04/07 01:27:48;;;;;;;0.80;0.80;;;;;;;17.90;40.93;99477.14;104446;1257;68711;-65
2023/04/07 01:30:17;;;;;;;0.70;0.70;;;;;;;17.85;41.04;99483.03;104233;1256;72843;-64
2023/04/07 01:32:52;;;;;;;0.80;0.80;;;;;;;17.78;41.73;99482.31;104368;1273;61179;-64
2023/04/07 01:35:21;;;;;;;0.80;0.80;;;;;;;17.86;41.56;99488.28;104289;1269;59953;-64
2023/04/07 01:37:50;;;;;;;0.90;0.90;;;;;;;17.91;41.70;99486.48;104418;1259;72732;-64
2023/04/07 01:40:18;;;;;;;0.70;0.70;;;;;;;17.91;41.21;99489.48;104427;1272;68386;-64
2023/04/07 01:42:47;;;;;;;0.70;0.70;;;;;;;17.87;41.98;99489.95;104366;1266;73001;-64
2023/04/07 01:45:16;;;;;;;1.00;0.80;;;;;;;17.89;41.76;99490.36;104202;1275;61817;-64
2023/04/07 01:47:45;;;;;;;0.90;0.90;;;;;;;17.92;41.51;99492.41;104363;1265;60259;-64
2023/04/07 01:50:13;;;;;;;0.70;0.70;;;;;;;17.95;41.66;99491.33;104389;1257;72350;-63
2023/04/07 01:52:43;;;;;;;0.80;0.80;;;;;;;17.95;41.76;99494.14;104411;1259;69777;-63
2023/04/07 01:55:12;;;;;;;1.00;1.00;;;;;;;17.95;41.69;99489.57;104371;1259;71930;-64
2023/04/07 01:57:53;;;;;;;0.90;0.90;;;;;;;17.98;41.23;99491.65;104450;1257;61113;-63
2023/04/07 02:00:21;;;;;;;0.80;0.80;;;;;;;17.99;41.39;99492.47;104245;1256;60310;-64
2023/04/07 02:02:58;;;;;;;0.90;0.80;;;;;;;17.96;41.42;99497.29;104334;1256;72147;-60
2023/04/07 02:05:27;;;;;;;0.80;0.80;;;;;;;17.92;41.71;99499.36;104219;1269;69150;-62
2023/04/07 02:08:01;;;;;;;1.10;1.00;;;;;;;17.89;41.57;99501.82;104303;1254;71884;-61
2023/04/07 02:10:36;;;;;;;1.40;0.70;;;;;;;17.82;42.26;99504.16;104295;1270;60928;-62
2023/04/07 02:13:07;;;;;;;1.00;1.00;;;;;;;17.69;41.81;99505.67;104219;1255;59759;-63
2023/04/07 02:15:36;;;;;;;0.80;0.80;;;;;;;17.63;42.34;99515.15;104389;1259;73259;-61
2023/04/07 02:18:04;;;;;;;0.70;0.70;;;;;;;17.64;42.47;99513.44;104396;1272;70348;-61
2023/04/07 02:20:33;;;;;;;0.90;0.90;;;;;;;17.60;42.21;99514.83;104417;1270;72007;-61
2023/04/07 02:23:02;;;;;;;0.90;0.90;;;;;;;17.50;41.95;99513.40;104315;1261;62084;-61
2023/04/07 02:25:31;;;;;;;0.90;0.80;;;;;;;17.39;42.56;99510.51;104368;1251;60582;-61
2023/04/07 02:28:00;;;;;;;0.80;0.80;;;;;;;17.38;42.70;99511.08;104464;1257;72840;-61
2023/04/07 02:30:30;;;;;;;0.90;0.90;;;;;;;17.43;42.40;99516.44;104470;1255;70412;-61
2023/04/07 02:33:00;;;;;;;0.70;0.70;;;;;;;17.37;42.02;99518.83;104336;1262;71960;-61
2023/04/07 02:35:29;;;;;;;0.80;0.70;;;;;;;17.33;42.37;99520.14;104491;1256;60170;-63
2023/04/07 02:37:58;;;;;;;0.80;0.80;;;;;;;17.28;41.85;99519.45;104790;1257;59763;-62
2023/04/07 02:40:27;;;;;;;0.70;0.70;;;;;;;17.25;41.80;99524.98;104336;1256;72416;-62
2023/04/07 02:42:56;;;;;;;0.70;0.70;;;;;;;17.26;41.85;99526.48;104335;1256;68517;-62
2023/04/07 02:45:24;;;;;;;0.50;0.50;;;;;;;17.23;41.87;99529.23;104489;1256;72707;-61
2023/04/07 02:47:52;;;;;;;0.70;0.70;;;;;;;17.24;41.88;99533.17;104380;1263;60605;-62
2023/04/07 02:50:21;;;;;;;2.00;0.70;;;;;;;17.24;41.52;99535.70;104362;1267;59949;-62
2023/04/07 02:52:49;;;;;;;0.60;0.60;;;;;;;17.21;41.28;99539.24;104331;1266;73207;-62
2023/04/07 02:55:18;;;;;;;0.90;0.90;;;;;;;17.21;41.56;99542.27;104419;1257;68714;-60
2023/04/07 02:57:46;;;;;;;0.90;0.90;;;;;;;17.14;41.15;99546.70;104365;1272;72894;-60
2023/04/07 03:00:24;;;;;;;0.80;0.80;;;;;;;17.11;41.30;99542.99;104333;1253;61176;-60
2023/04/07 03:03:01;;;;;;;0.80;0.80;;;;;;;17.03;41.15;99546.43;104329;1252;60119;-61
2023/04/07 03:05:32;;;;;;;0.90;0.90;;;;;;;16.90;41.36;99550.52;104353;1264;72495;-61
2023/04/07 03:08:01;;;;;;;0.90;0.90;;;;;;;16.86;41.49;99553.91;104272;1263;68414;-60
2023/04/07 03:10:30;;;;;;;1.00;1.00;;;;;;;16.84;41.54;99560.48;104353;1257;72047;-61
2023/04/07 03:12:59;;;;;;;0.90;0.90;;;;;;;16.77;41.20;99563.80;104348;1266;60233;-65
2023/04/07 03:15:28;;;;;;;0.70;0.70;;;;;;;16.71;41.50;99565.20;104475;1265;59672;-63
2023/04/07 03:18:00;;;;;;;0.90;0.90;;;;;;;16.70;41.37;99566.54;104371;1269;73142;-61
2023/04/07 03:20:29;;;;;;;0.80;0.80;;;;;;;16.73;41.20;99571.48;104342;1258;69184;-61
2023/04/07 03:23:07;;;;;;;0.70;0.70;;;;;;;16.77;41.02;99570.46;104372;1255;71890;-61
2023/04/07 03:25:36;;;;;;;0.70;0.70;;;;;;;16.81;40.92;99573.21;104384;1270;61338;-61
2023/04/07 03:28:05;;;;;;;0.90;0.80;;;;;;;16.84;40.78;99580.13;104399;1251;60057;-61
2023/04/07 03:30:36;;;;;;;0.60;0.60;;;;;;;16.80;40.76;99582.16;104583;1254;72490;-63
2023/04/07 03:33:05;;;;;;;0.80;0.80;;;;;;;16.79;40.57;99585.05;104345;1257;69212;-61
2023/04/07 03:35:33;;;;;;;0.70;0.70;;;;;;;16.72;40.85;99587.31;104415;1254;72014;-61
2023/04/07 03:38:03;;;;;;;0.70;0.70;;;;;;;16.72;40.84;99595.64;104423;1268;60557;-61
2023/04/07 03:40:32;;;;;;;0.60;0.60;;;;;;;16.68;40.89;99598.55;104308;1257;59853;-60
2023/04/07 03:43:02;;;;;;;0.80;0.80;;;;;;;16.64;40.90;99597.77;104547;1254;72848;-61
2023/04/07 03:45:32;;;;;;;0.80;0.80;;;;;;;16.60;40.94;99604.42;104434;1254;68565;-61
2023/04/07 03:48:04;;;;;;;1.00;1.00;;;;;;;16.59;41.06;99605.34;104563;1256;72669;-61
2023/04/07 03:50:33;;;;;;;0.90;0.90;;;;;;;16.53;41.21;99607.85;104308;1258;61271;-62
2023/04/07 03:53:15;;;;;;;0.90;0.90;;;;;;;16.43;41.14;99612.64;104308;1257;59753;-61
2023/04/07 03:55:44;;;;;;;6.30;4.40;;;;;;;16.34;41.39;99614.83;104441;1263;73057;-63
2023/04/07 03:58:19;;;;;;;16.40;8.30;;;;;;;16.35;41.41;99615.28;104368;1255;69822;-59
2023/04/07 04:00:48;;;;;;;30.10;14.20;;;;;;;16.32;41.32;99620.95;104463;1251;71928;-60
2023/04/07 04:03:18;;;;;;;26.40;11.90;;;;;;;16.27;41.70;99625.67;104508;1261;61826;-62
2023/04/07 04:06:15;;;;;;;14.70;8.00;;;;;;;16.22;41.12;99627.83;104329;1257;59939;-62
2023/04/07 04:08:45;;;;;;;15.00;8.80;;;;;;;16.08;41.79;99631.75;104483;1255;73374;-62
2023/04/07 04:11:15;;;;;;;13.90;7.50;;;;;;;15.98;41.69;99640.16;104320;1257;69786;-62
2023/04/07 04:13:52;;;;;;;8.90;5.30;;;;;;;15.96;41.70;99638.04;104315;1254;71642;-63
2023/04/07 04:16:22;;;;;;;8.20;5.40;;;;;;;15.90;41.68;99638.20;104334;1251;60222;-62
2023/04/07 04:18:51;;;;;;;6.50;4.50;;;;;;;15.91;41.66;99639.56;104386;1256;60073;-62
2023/04/07 04:21:23;;;;;;;5.30;3.60;;;;;;;15.89;41.72;99641.29;104322;1257;73742;-62
2023/04/07 04:23:52;;;;;;;4.50;4.00;;;;;;;15.96;41.79;99641.88;104290;1260;70683;-61
2023/04/07 04:26:24;;;;;;;3.30;3.00;;;;;;;16.03;41.70;99645.31;104415;1257;72961;-62
2023/04/07 04:28:56;;;;;;;3.10;2.70;;;;;;;16.08;41.50;99646.06;104729;1251;61079;-62
2023/04/07 04:31:26;;;;;;;3.70;3.20;;;;;;;16.05;41.50;99648.73;104711;1255;60383;-61
2023/04/07 04:34:00;;;;;;;3.00;2.60;;;;;;;16.08;41.84;99652.94;104945;1259;72451;-63
2023/04/07 04:36:30;;;;;;;2.10;1.90;;;;;;;16.19;41.78;99655.38;104437;1271;70318;-61
2023/04/07 04:39:03;;;;;;;1.60;1.50;;;;;;;16.27;41.41;99655.61;104394;1257;72417;-62
2023/04/07 04:41:33;;;;;;;1.80;1.70;;;;;;;16.25;41.54;99659.25;104568;1251;61231;-61
2023/04/07 04:44:01;;;;;;;1.60;1.50;;;;;;;16.27;41.63;99658.95;104306;1251;59746;-61
2023/04/07 04:46:34;;;;;;;1.30;1.30;;;;;;;16.30;41.34;99663.52;107050;1251;72139;-62
2023/04/07 04:49:03;;;;;;;1.10;1.00;;;;;;;16.30;41.66;99667.63;108293;1251;69929;-61
2023/04/07 04:51:32;;;;;;;1.20;1.10;;;;;;;16.31;41.74;99672.86;107668;1251;72462;-63
2023/04/07 04:54:15;;;;;;;1.40;1.30;;;;;;;16.46;41.80;99672.04;108472;1251;61714;-61
2023/04/07 04:56:45;;;;;;;1.20;1.10;;;;;;;16.49;41.39;99673.98;108515;1251;63012;-58
2023/04/07 04:59:13;;;;;;;1.20;1.10;;;;;;;16.54;41.86;99678.79;108244;1251;73861;-60
2023/04/07 05:01:56;;;;;;;1.60;1.50;;;;;;;16.56;41.69;99685.34;104591;1251;71023;-59
2023/04/07 05:04:25;;;;;;;1.10;1.10;;;;;;;16.53;41.76;99685.88;104288;1264;72161;-62
2023/04/07 05:07:00;;;;;;;1.30;1.30;;;;;;;16.52;41.89;99686.30;104411;1257;61622;-60
2023/04/07 05:09:30;;;;;;;1.30;1.30;;;;;;;16.53;42.09;99688.03;104444;1258;59853;-60
2023/04/07 05:12:00;;;;;;;1.50;1.40;;;;;;;16.52;41.99;99693.58;104475;1263;72689;-59
2023/04/07 05:14:31;;;;;;;1.50;1.40;;;;;;;16.56;41.53;99694.56;104261;1263;69781;-59
2023/04/07 05:17:04;;;;;;;1.70;1.60;;;;;;;16.58;41.67;99696.20;104410;1257;72013;-61
2023/04/07 05:19:33;;;;;;;1.30;1.20;;;;;;;16.57;41.31;99695.55;104418;1261;61380;-60
2023/04/07 05:22:08;;;;;;;1.60;1.50;;;;;;;16.61;40.98;99698.30;104463;1256;60544;-63
2023/04/07 05:24:43;;;;;;;1.30;1.30;;;;;;;16.72;40.48;99702.84;104465;1251;74085;-60
2023/04/07 05:27:12;;;;;;;1.40;1.30;;;;;;;16.73;41.33;99704.05;104481;1259;69857;-61
2023/04/07 05:29:41;;;;;;;1.50;1.40;;;;;;;16.78;41.19;99708.10;104347;1258;72113;-61
2023/04/07 05:32:16;;;;;;;1.40;1.40;;;;;;;16.86;41.06;99711.86;104354;1258;61131;-60
2023/04/07 05:34:45;;;;;;;1.60;1.50;;;;;;;16.89;40.48;99713.26;104287;1251;60889;-60
2023/04/07 05:37:15;;;;;;;1.70;1.30;;;;;;;16.87;40.84;99716.20;104321;1267;74241;-60
2023/04/07 05:39:45;;;;;;;1.40;1.30;;;;;;;16.92;41.14;99723.81;104548;1264;69838;-60
2023/04/07 05:42:14;;;;;;;1.20;1.20;;;;;;;17.00;40.34;99724.71;104246;1265;72107;-61
2023/04/07 05:44:44;;;;;;;1.50;1.50;;;;;;;17.02;40.32;99723.02;104339;1262;60562;-60
2023/04/07 05:47:15;;;;;;;1.50;1.40;;;;;;;17.08;40.35;99726.64;104352;1251;60682;-61
2023/04/07 05:49:46;;;;;;;1.70;1.60;;;;;;;17.16;40.88;99726.13;104612;1251;73743;-60
2023/04/07 05:52:14;;;;;;;1.60;1.50;;;;;;;17.17;40.44;99729.79;104490;1254;69030;-60
2023/04/07 05:54:47;;;;;;;1.50;1.40;;;;;;;17.21;40.45;99731.96;104265;1274;72163;-61
2023/04/07 05:57:16;;;;;;;1.60;1.50;;;;;;;17.20;40.44;99733.45;104384;1261;60555;-60
2023/04/07 05:59:46;;;;;;;1.60;1.50;;;;;;;17.11;40.33;99737.08;104462;1257;60490;-61
2023/04/07 06:02:14;;;;;;;1.90;1.80;;;;;;;17.13;40.71;99739.63;104450;1251;74033;-62
2023/04/07 06:04:45;;;;;;;1.70;1.60;;;;;;;17.19;40.51;99740.11;104323;1254;69340;-62
2023/04/07 06:07:16;;;;;;;1.50;1.40;;;;;;;17.25;40.61;99745.11;104303;1251;72231;-60
2023/04/07 06:09:45;;;;;;;1.50;1.40;;;;;;;17.27;41.08;99748.42;104304;1250;60646;-63
2023/04/07 06:12:16;;;;;;;1.80;1.70;;;;;;;17.33;41.40;99747.65;104253;1267;60125;-61
2023/04/07 06:14:52;;;;;;;1.60;1.40;;;;;;;17.43;40.65;99754.41;104864;1255;74492;-61
2023/04/07 06:17:22;;;;;;;1.60;1.50;;;;;;;17.47;40.49;99756.06;104345;1258;69793;-61
2023/04/07 06:19:51;;;;;;;1.70;1.60;;;;;;;17.55;40.18;99759.23;104369;1262;74057;-61
2023/04/07 06:22:20;;;;;;;1.60;1.50;;;;;;;17.56;40.18;99761.05;104436;1251;61277;-61
2023/04/07 06:24:50;;;;;;;1.20;1.20;;;;;;;17.57;40.65;99764.52;104570;1251;59833;-61
2023/04/07 06:27:20;;;;;;;1.50;1.40;;;;;;;17.60;40.15;99768.75;104627;1251;73421;-62
2023/04/07 06:29:49;;;;;;;1.60;1.50;;;;;;;17.67;40.08;99769.54;104752;1251;68903;-60
2023/04/07 06:32:19;;;;;;;1.60;1.50;;;;;;;17.77;40.74;99771.17;104344;1257;72906;-61
2023/04/07 06:34:47;;;;;;;1.70;1.60;;;;;;;17.87;40.62;99775.08;104562;1266;62743;-61
2023/04/07 06:37:16;;;;;;;2.40;1.40;;;;;;;17.90;39.65;99775.71;104686;1255;61232;-62
2023/04/07 06:39:45;;;;;;;1.60;1.50;;;;;;;17.87;39.90;99780.20;104478;1270;73907;-60
2023/04/07 06:42:14;;;;;;;1.60;1.50;;;;;;;17.90;40.75;99784.06;104660;1257;68709;-61
2023/04/07 06:44:50;;;;;;;1.40;1.30;;;;;;;17.98;40.83;99783.87;104738;1251;73089;-61
2023/04/07 06:47:19;;;;;;;1.60;1.50;;;;;;;18.04;40.36;99782.95;104808;1257;60463;-60
2023/04/07 06:49:47;;;;;;;1.50;1.40;;;;;;;18.07;40.04;99789.23;104649;1256;60450;-61
2023/04/07 06:52:15;;;;;;;1.40;1.30;;;;;;;18.16;40.34;99794.45;104639;1257;72958;-60
2023/04/07 06:54:44;;;;;;;1.30;1.20;;;;;;;18.16;39.18;99794.48;104537;1255;68728;-64
2023/04/07 06:57:13;;;;;;;2.00;1.90;;;;;;;18.13;40.07;99793.61;104238;1256;72900;-62
2023/04/07 06:59:42;;;;;;;1.50;1.40;;;;;;;18.18;40.58;99797.50;104359;1264;60742;-66
2023/04/07 07:02:10;;;;;;;1.80;1.70;;;;;;;18.28;40.88;99797.32;104343;1269;60274;-63
2023/04/07 07:04:39;;;;;;;1.80;1.20;;;;;;;18.37;40.41;99794.90;104221;1254;73329;-64
2023/04/07 07:07:08;;;;;;;1.50;1.40;;;;;;;18.44;39.80;99800.77;104296;1256;69463;-62
2023/04/07 07:09:37;;;;;;;1.50;1.40;;;;;;;18.47;39.48;99798.46;104261;1251;72899;-63
2023/04/07 07:12:07;;;;;;;1.40;1.30;;;;;;;18.49;40.29;99800.20;104370;1257;62137;-62
2023/04/07 07:14:37;;;;;;;1.30;1.20;;;;;;;18.57;39.83;99797.73;104345;1269;61330;-63
2023/04/07 07:17:09;;;;;;;1.50;1.40;;;;;;;18.65;40.17;99800.30;104401;1256;73430;-64
2023/04/07 07:19:37;;;;;;;1.70;1.60;;;;;;;18.81;40.21;99799.91;104370;1250;69862;-63
2023/04/07 07:22:10;;;;;;;2.20;1.60;;;;;;;18.83;39.14;99805.23;104232;1274;73494;-62
2023/04/07 07:24:40;;;;;;;1.90;1.80;;;;;;;18.80;39.48;99807.97;104367;1267;62078;-62
2023/04/07 07:27:08;;;;;;;1.80;1.70;;;;;;;18.66;39.40;99808.94;104893;1251;60710;-63
2023/04/07 07:29:37;;;;;;;2.00;1.90;;;;;;;18.63;39.08;99810.23;106763;1251;74026;-64
2023/04/07 07:32:05;;;;;;;1.70;1.60;;;;;;;18.68;39.68;99811.27;104342;1274;68528;-63
2023/04/07 07:34:34;;;;;;;1.80;1.70;;;;;;;18.72;39.57;99815.27;104364;1257;74107;-63
2023/04/07 07:37:04;;;;;;;1.40;1.30;;;;;;;18.70;38.31;99811.31;104470;1258;60974;-62
2023/04/07 07:39:32;;;;;;;1.80;1.70;;;;;;;18.62;39.09;99812.23;104277;1256;60446;-63
2023/04/07 07:42:01;;;;;;;1.70;1.60;;;;;;;18.68;40.10;99813.22;104247;1254;73313;-62
2023/04/07 07:44:29;;;;;;;1.40;1.30;;;;;;;18.83;40.43;99812.67;104372;1253;69378;-62
2023/04/07 07:47:00;;;;;;;1.50;1.40;;;;;;;19.00;40.25;99812.98;104495;1266;72367;-62
2023/04/07 07:49:30;;;;;;;1.60;1.50;;;;;;;19.16;39.99;99812.68;104580;1254;61325;-62
2023/04/07 07:52:01;;;;;;;1.90;1.80;;;;;;;19.22;39.67;99811.16;104960;1251;60470;-62
2023/04/07 07:54:30;;;;;;;1.90;1.70;;;;;;;19.29;39.52;99812.05;104474;1251;73236;-62
2023/04/07 07:57:00;;;;;;;1.80;1.70;;;;;;;19.31;39.37;99814.42;104559;1251;68808;-62
2023/04/07 07:59:29;;;;;;;2.00;1.90;;;;;;;19.27;40.16;99815.05;104399;1269;73579;-63
2023/04/07 08:01:59;;;;;;;2.30;1.80;;;;;;;19.19;39.98;99813.86;104355;1253;60987;-63
2023/04/07 08:04:28;;;;;;;1.70;1.60;;;;;;;19.06;39.03;99813.83;104254;1274;59830;-63
2023/04/07 08:06:57;;;;;;;1.60;1.50;;;;;;;19.15;39.20;99813.32;104489;1256;73101;-63
2023/04/07 08:09:26;;;;;;;1.50;1.40;;;;;;;19.26;39.43;99813.73;104696;1257;70409;-63
2023/04/07 08:11:54;;;;;;;2.00;1.90;;;;;;;19.34;39.83;99813.61;104487;1251;71829;-63
2023/04/07 08:14:24;;;;;;;1.90;1.80;;;;;;;19.45;39.13;99815.96;104638;1251;62078;-65
2023/04/07 08:16:54;;;;;;;1.70;1.60;;;;;;;19.51;38.77;99815.53;104611;1253;60108;-64
2023/04/07 08:19:23;;;;;;;1.90;1.70;;;;;;;19.56;39.38;99816.77;104536;1254;75167;-63
2023/04/07 08:21:52;;;;;;;1.90;1.80;;;;;;;19.63;38.96;99818.67;104310;1267;69314;-63
2023/04/07 08:24:21;;;;;;;1.90;1.80;;;;;;;19.69;38.62;99824.66;104677;1268;73318;-69
2023/04/07 08:26:51;;;;;;;1.80;1.70;;;;;;;19.75;38.80;99824.55;104468;1253;61612;-63
2023/04/07 08:29:20;;;;;;;1.90;1.80;;;;;;;19.75;38.52;99822.05;104318;1270;61557;-62
2023/04/07 08:31:49;;;;;;;1.70;1.60;;;;;;;19.76;38.60;99826.75;104294;1252;73885;-62
2023/04/07 08:34:19;;;;;;;1.60;1.50;;;;;;;19.75;38.89;99825.06;104370;1266;68403;-62
2023/04/07 08:36:48;;;;;;;1.50;1.40;;;;;;;19.86;39.06;99827.61;104233;1264;72185;-62
2023/04/07 08:39:18;;;;;;;1.90;1.80;;;;;;;20.02;39.80;99822.83;104429;1257;60802;-62
2023/04/07 08:41:47;;;;;;;1.80;1.70;;;;;;;20.19;39.73;99824.25;104281;1254;61111;-62
2023/04/07 08:44:15;;;;;;;1.80;1.70;;;;;;;20.33;39.24;99823.90;104418;1260;74292;-63
2023/04/07 08:46:44;;;;;;;2.00;1.80;;;;;;;20.44;38.88;99821.94;104424;1261;69586;-65
2023/04/07 08:49:13;;;;;;;1.50;1.40;;;;;;;20.51;39.12;99819.54;104342;1253;71926;-63
2023/04/07 08:51:46;;;;;;;2.00;1.90;;;;;;;20.52;38.56;99824.46;104195;1265;63058;-63
2023/04/07 08:54:17;;;;;;;1.70;1.60;;;;;;;20.49;38.60;99821.02;104484;1254;60553;-64
2023/04/07 08:56:47;;;;;;;1.80;1.70;;;;;;;20.55;39.19;99821.58;104302;1267;75467;-62
2023/04/07 08:59:17;;;;;;;2.60;2.30;;;;;;;20.51;38.53;99821.33;104737;1252;69331;-65
2023/04/07 09:01:46;;;;;;;1.90;1.80;;;;;;;20.42;38.63;99823.46;104694;1264;73786;-69
2023/04/07 09:04:16;;;;;;;1.80;1.70;;;;;;;20.40;38.66;99823.33;104563;1256;60504;-69
2023/04/07 09:06:44;;;;;;;1.90;1.80;;;;;;;20.47;38.41;99828.27;104338;1258;60814;-69
2023/04/07 09:09:13;;;;;;;2.30;2.20;;;;;;;20.57;38.58;99828.02;104349;1263;73414;-68
2023/04/07 09:11:43;;;;;;;1.90;1.80;;;;;;;20.59;37.84;99825.55;104973;1252;68935;-65
2023/04/07 09:14:11;;;;;;;2.00;1.90;;;;;;;20.58;37.99;99825.41;104501;1257;72386;-62
2023/04/07 09:16:40;;;;;;;1.80;1.60;;;;;;;20.58;38.55;99826.88;104293;1253;63704;-62
2023/04/07 09:19:11;;;;;;;1.60;1.50;;;;;;;20.63;38.07;99830.19;104642;1253;60706;-62
2023/04/07 09:21:47;;;;;;;1.60;1.50;;;;;;;20.69;38.35;99838.64;104367;1258;72926;-62
2023/04/07 09:24:42;;;;;;;1.80;1.70;;;;;;;20.68;36.93;99833.93;104599;1254;70263;-65
2023/04/07 09:27:16;;;;;;;1.90;1.80;;;;;;;20.68;38.19;99833.37;104344;1253;73646;-60
2023/04/07 09:29:46;;;;;;;1.70;1.60;;;;;;;20.72;37.28;99834.14;104232;1257;60795;-61
2023/04/07 09:32:36;;;;;;;1.60;1.50;;;;;;;20.82;37.77;99830.97;104753;1258;61017;-61
2023/04/07 09:35:04;;;;;;;2.00;1.90;;;;;;;20.96;37.96;99829.83;104528;1254;75115;-62
2023/04/07 09:37:33;;;;;;;1.60;1.50;;;;;;;20.99;37.82;99832.40;104430;1253;69646;-65
2023/04/07 09:40:02;;;;;;;1.70;1.60;;;;;;;21.08;37.80;99832.56;104358;1255;72758;-64
2023/04/07 09:42:38;;;;;;;1.30;1.20;;;;;;;21.15;37.16;99833.96;104282;1268;60611;-64
2023/04/07 09:45:07;;;;;;;1.60;1.50;;;;;;;21.22;37.53;99829.92;104368;1259;60911;-64
2023/04/07 09:47:37;;;;;;;1.60;1.50;;;;;;;21.20;37.50;99827.79;104257;1256;74858;-64
2023/04/07 09:50:06;;;;;;;1.70;1.60;;;;;;;21.27;37.48;99828.65;104420;1260;70238;-64
2023/04/07 09:52:48;;;;;;;1.90;1.80;;;;;;;21.22;37.72;99830.31;104598;1252;74120;-64
2023/04/07 09:55:21;;;;;;;1.70;1.60;;;;;;;21.28;37.72;99828.70;104340;1267;62388;-64
2023/04/07 09:57:50;;;;;;;1.40;1.30;;;;;;;21.33;36.86;99825.61;104218;1256;60582;-68
2023/04/07 10:00:18;;;;;;;1.60;1.50;;;;;;;21.42;36.91;99821.33;104273;1271;74289;-64
2023/04/07 10:02:49;;;;;;;1.60;1.50;;;;;;;21.45;37.04;99821.81;104338;1256;71127;-64
2023/04/07 10:05:21;;;;;;;1.70;1.60;;;;;;;21.44;37.46;99823.64;104402;1258;72438;-64
2023/04/07 10:07:50;;;;;;;1.90;1.80;;;;;;;21.45;37.44;99821.40;104244;1263;60581;-65
2023/04/07 10:10:19;;;;;;;1.50;1.50;;;;;;;21.49;36.67;99819.67;104618;1261;60526;-64
2023/04/07 10:12:47;;;;;;;1.80;1.70;;;;;;;21.39;35.94;99826.06;104794;1257;74317;-65
2023/04/07 10:15:16;;;;;;;1.60;1.50;;;;;;;21.40;36.61;99825.23;104792;1255;70218;-61
2023/04/07 10:17:48;;;;;;;1.50;1.40;;;;;;;21.56;36.52;99829.61;104302;1258;73994;-64
2023/04/07 10:20:19;;;;;;;1.60;1.50;;;;;;;21.61;36.87;99828.27;104260;1258;63037;-63
2023/04/07 10:22:50;;;;;;;1.70;1.60;;;;;;;21.66;36.31;99830.89;104352;1252;60538;-64
2023/04/07 10:25:20;;;;;;;1.90;1.80;;;;;;;21.69;36.12;99833.97;104321;1256;73918;-64
2023/04/07 10:27:50;;;;;;;1.80;1.70;;;;;;;21.67;36.05;99834.58;104226;1266;69855;-64
2023/04/07 10:30:25;;;;;;;1.70;1.60;;;;;;;21.65;36.58;99835.94;104345;1253;72814;-63
2023/04/07 10:33:13;;;;;;;1.70;1.60;;;;;;;21.68;35.68;99835.73;104326;1253;63930;-62
2023/04/07 10:36:07;;;;;;;1.70;1.60;;;;;;;21.64;36.91;99834.95;104301;1275;61922;-61
2023/04/07 10:38:35;;;;;;;1.20;1.10;;;;;;;21.70;36.28;99837.44;104382;1258;74678;-61
2023/04/07 10:41:35;;;;;;;1.90;1.80;;;;;;;21.72;35.73;99839.11;104201;1257;69710;-61
2023/04/07 10:44:05;;;;;;;1.40;1.30;;;;;;;21.81;35.92;99839.98;104326;1253;73561;-61
2023/04/07 10:47:03;;;;;;;1.50;1.40;;;;;;;21.85;36.46;99842.26;104318;1252;60934;-61
2023/04/07 10:49:34;;;;;;;1.40;1.30;;;;;;;21.99;36.11;99843.21;104292;1271;60476;-61
2023/04/07 10:52:12;;;;;;;1.20;1.10;;;;;;;22.00;35.96;99838.98;104266;1254;74027;-61
2023/04/07 10:54:41;;;;;;;1.20;1.10;;;;;;;22.02;35.96;99840.73;104270;1267;71610;-62
2023/04/07 10:57:16;;;;;;;1.20;1.10;;;;;;;22.07;35.97;99840.88;104274;1256;72957;-63
2023/04/07 11:00:10;;;;;;;1.40;1.30;;;;;;;22.17;35.71;99837.20;104276;1259;60935;-63
2023/04/07 11:02:43;;;;;;;1.20;1.10;;;;;;;22.21;35.92;99838.61;104293;1262;62025;-62
2023/04/07 11:05:20;;;;;;;1.60;1.50;;;;;;;22.20;36.00;99838.83;104393;1252;73815;-61
2023/04/07 11:07:54;;;;;;;1.20;1.20;;;;;;;22.16;35.31;99838.30;104321;1257;70191;-63
2023/04/07 11:10:34;;;;;;;1.60;1.50;;;;;;;22.12;35.65;99835.09;104222;1275;73943;-61
2023/04/07 11:13:06;;;;;;;1.50;1.40;;;;;;;22.15;36.04;99835.20;104549;1254;60982;-61
2023/04/07 11:15:36;;;;;;;1.50;1.40;;;;;;;22.25;36.24;99833.80;104288;1258;60963;-62
2023/04/07 11:18:08;;;;;;;1.40;1.30;;;;;;;22.38;36.27;99831.71;104264;1257;75645;-62
2023/04/07 11:20:54;;;;;;;2.90;1.50;;;;;;;22.52;35.80;99830.20;104307;1275;70462;-61
2023/04/07 11:23:24;;;;;;;1.10;1.10;;;;;;;22.57;35.85;99829.70;104252;1253;72760;-60
2023/04/07 11:26:02;;;;;;;1.60;1.50;;;;;;;22.65;35.93;99827.88;104352;1254;61268;-60
2023/04/07 11:28:31;;;;;;;1.50;1.40;;;;;;;22.78;36.33;99825.35;104301;1264;61161;-60
2023/04/07 11:31:00;;;;;;;1.50;1.40;;;;;;;22.92;36.09;99825.67;104349;1274;75052;-58
2023/04/07 11:33:30;;;;;;;1.10;1.10;;;;;;;23.06;35.00;99823.10;104241;1263;70583;-60
2023/04/07 11:35:59;;;;;;;1.70;1.60;;;;;;;23.15;35.59;99824.32;104230;1264;73472;-60
2023/04/07 11:38:37;;;;;;;1.40;1.30;;;;;;;23.22;35.46;99822.19;104314;1253;61754;-59
2023/04/07 11:41:10;;;;;;;1.50;1.40;;;;;;;23.31;35.62;99823.70;104368;1260;61129;-61
2023/04/07 11:43:41;;;;;;;1.40;1.30;;;;;;;23.39;35.78;99821.86;104330;1257;74072;-60
2023/04/07 11:46:12;;;;;;;1.50;1.40;;;;;;;23.43;35.33;99820.39;104320;1256;70310;-60